Time;durP1;ratioP1;P1;durP2;ratioP2;P2;SDS_P1;SDS_P2;PMS_P1;PMS_P2;Temp;Humidity;BMP_temperature;BMP_pressure;BME280_temperature;BME280_humidity;BME280_pressure;Samples;Min_cycle;Max_cycle;Signal;HPM_P1;HPM_P2
2021/12/20 00:00:30;;;;;;;37.63;4.70;;;6.70;99.90;;;;;;5096664;28;20046;-70
2021/12/20 00:03:00;;;;;;;34.22;3.78;;;6.80;99.90;;;;;;5113852;28;20046;-70
2021/12/20 00:05:26;;;;;;;26.27;3.60;;;;;;;;;;5099715;28;20084;-71
2021/12/20 00:07:53;;;;;;;31.15;3.97;;;;;;;;;;5114481;28;20039;-70
2021/12/20 00:10:19;;;;;;;25.70;4.55;;;;;;;;;;5100220;28;20046;-70
2021/12/20 00:12:45;;;;;;;26.80;4.25;;;;;;;;;;5114140;28;20035;-71
2021/12/20 00:15:11;;;;;;;38.13;4.60;;;;;;;;;;5097902;28;20083;-70
2021/12/20 00:17:37;;;;;;;37.25;3.95;;;;;;;;;;5114317;28;20051;-71
2021/12/20 00:20:04;;;;;;;25.02;3.75;;;6.60;99.90;;;;;;5098422;28;20055;-71
2021/12/20 00:22:31;;;;;;;26.10;3.28;;;;;;;;;;5077127;28;20044;-70
2021/12/20 00:24:57;;;;;;;38.70;4.25;;;;;;;;;;5106806;28;20559;-70
2021/12/20 00:27:23;;;;;;;29.30;4.57;;;;;;;;;;5097027;28;20043;-70
2021/12/20 00:29:49;;;;;;;26.60;3.80;;;7.00;99.90;;;;;;5084947;28;20123;-71
2021/12/20 00:32:17;;;;;;;31.35;4.50;;;6.90;99.90;;;;;;5076785;28;20040;-70
2021/12/20 00:34:43;;;;;;;28.70;4.28;;;;;;;;;;5086703;28;20505;-70
2021/12/20 00:40:20;;;;;;;28.38;3.08;;;7.00;99.90;;;;;;5114046;28;20391;-71
2021/12/20 00:42:42;;;;;;;37.53;3.40;;;;;;;;;;5093411;28;20526;-70
2021/12/20 00:45:09;;;;;;;27.55;4.95;;;6.60;99.90;;;;;;5076889;28;20126;-70
2021/12/20 00:47:36;;;;;;;23.92;3.67;;;7.00;99.90;;;;;;5083432;28;20380;-70
2021/12/20 00:50:02;;;;;;;24.02;3.10;;;;;;;;;;5100333;28;20040;-70
2021/12/20 00:52:28;;;;;;;20.33;3.50;;;;;;;;;;5098084;28;20035;-70
2021/12/20 00:54:54;;;;;;;29.00;4.20;;;;;;;;;;5113543;28;20039;-71
2021/12/20 00:57:20;;;;;;;32.65;4.38;;;;;;;;;;5109960;28;20520;-72
2021/12/20 00:59:46;;;;;;;33.10;3.50;;;;;;;;;;5103691;28;20043;-70
2021/12/20 01:02:12;;;;;;;23.40;2.80;;;6.40;99.90;;;;;;5111776;28;20036;-70
2021/12/20 01:04:38;;;;;;;26.25;3.80;;;;;;;;;;5093118;28;20065;-70
2021/12/20 01:07:04;;;;;;;22.77;3.58;;;;;;;;;;5092953;28;20040;-70
2021/12/20 01:09:30;;;;;;;19.42;2.95;;;;;;;;;;5087327;28;20099;-70
2021/12/20 01:12:02;;;;;;;28.10;3.70;;;;;;;;;;5092829;28;20075;-70
2021/12/20 01:14:31;;;;;;;26.13;4.20;;;;;;;;;;5111141;28;20047;-70
2021/12/20 01:17:03;;;;;;;20.92;3.03;;;;;;;;;;5113489;28;20085;-70
2021/12/20 01:19:29;;;;;;;25.35;3.35;;;;;;;;;;5095997;28;20128;-70
2021/12/20 01:21:55;;;;;;;30.38;3.25;;;6.50;99.90;;;;;;5092146;28;20079;-70
2021/12/20 01:24:21;;;;;;;20.70;3.63;;;;;;;;;;5091790;28;20105;-70
2021/12/20 01:26:47;;;;;;;35.95;4.22;;;;;;;;;;5113102;28;20364;-70
2021/12/20 01:29:13;;;;;;;26.35;3.35;;;6.80;99.90;;;;;;5098224;28;20047;-70
2021/12/20 01:31:39;;;;;;;25.25;4.03;;;;;;;;;;5092861;28;20044;-70
2021/12/20 01:34:05;;;;;;;39.30;4.18;;;;;;;;;;5104636;28;20040;-70
2021/12/20 01:36:32;;;;;;;23.55;3.10;;;;;;;;;;5112748;28;20122;-70
2021/12/20 01:38:58;;;;;;;22.92;2.97;;;;;;;;;;5101191;28;20116;-70
2021/12/20 01:41:24;;;;;;;26.60;3.95;;;;;;;;;;5092476;28;20100;-70
2021/12/20 01:43:50;;;;;;;27.45;3.72;;;;;;;;;;5092573;28;20503;-70
2021/12/20 01:46:16;;;;;;;28.58;3.53;;;;;;;;;;5092355;28;20174;-72
2021/12/20 01:48:44;;;;;;;38.83;4.55;;;;;;;;;;5101179;28;20028;-71
2021/12/20 01:51:32;;;;;;;19.10;3.22;;;;;;;;;;5096310;28;20055;-71
2021/12/20 01:53:59;;;;;;;16.95;2.78;;;;;;;;;;5101430;28;20048;-70
2021/12/20 01:56:25;;;;;;;27.65;3.83;;;;;;;;;;5092323;28;20044;-70
2021/12/20 01:58:51;;;;;;;20.95;3.35;;;;;;;;;;5094352;28;20046;-70
2021/12/20 02:01:19;;;;;;;18.33;3.47;;;;;;;;;;5093355;28;20112;-70
2021/12/20 02:03:49;;;;;;;30.15;4.20;;;7.00;99.90;;;;;;5100508;28;20039;-71
2021/12/20 02:06:39;;;;;;;23.05;3.08;;;;;;;;;;5095644;28;20092;-70
2021/12/20 02:09:13;;;;;;;24.02;2.67;;;6.70;99.90;;;;;;5107797;28;20048;-71
2021/12/20 02:11:40;;;;;;;20.00;3.28;;;6.70;99.90;;;;;;5112667;28;20074;-71
2021/12/20 02:14:08;;;;;;;25.55;3.13;;;6.70;99.90;;;;;;5102580;28;20040;-71
2021/12/20 02:16:34;;;;;;;25.33;4.53;;;6.80;99.90;;;;;;5092247;28;20040;-70
2021/12/20 02:19:06;;;;;;;20.05;2.97;;;6.30;99.90;;;;;;5096258;28;20055;-70
2021/12/20 02:21:32;;;;;;;26.02;3.00;;;;;;;;;;5093831;28;20106;-70
2021/12/20 02:23:58;;;;;;;20.42;2.80;;;;;;;;;;5103407;28;20104;-70
2021/12/20 02:26:25;;;;;;;20.42;2.83;;;6.80;99.90;;;;;;5116397;28;20039;-70
2021/12/20 02:28:54;;;;;;;16.05;2.40;;;6.30;99.90;;;;;;5110505;28;20558;-70
2021/12/20 02:37:01;;;;;;;17.90;2.28;;;6.80;99.90;;;;;;5096159;28;20452;-71
2021/12/20 02:39:27;;;;;;;24.80;2.33;;;;;;;;;;5101541;28;20036;-71
2021/12/20 02:41:53;;;;;;;15.10;2.50;;;;;;;;;;5095623;28;20376;-70
2021/12/20 02:44:19;;;;;;;21.15;2.67;;;7.70;99.90;;;;;;5102461;28;20119;-70
2021/12/20 02:46:51;;;;;;;17.27;2.72;;;6.90;99.90;;;;;;5114639;28;20051;-70
2021/12/20 02:49:23;;;;;;;25.92;4.18;;;7.00;99.90;;;;;;5107223;28;20391;-70
2021/12/20 02:51:51;;;;;;;21.52;2.88;;;7.00;99.90;;;;;;5116266;28;20118;-70
2021/12/20 02:54:19;;;;;;;22.40;2.35;;;6.60;99.90;;;;;;5108690;28;20426;-70
2021/12/20 02:56:46;;;;;;;16.65;2.70;;;6.70;99.90;;;;;;5095426;28;20047;-70
2021/12/20 02:59:12;;;;;;;13.70;3.42;;;6.60;99.90;;;;;;5103079;28;20480;-70
2021/12/20 03:01:40;;;;;;;22.95;2.92;;;6.70;99.90;;;;;;5095224;28;20036;-70
2021/12/20 03:04:07;;;;;;;13.55;1.92;;;;;;;;;;5082503;28;20458;-70
2021/12/20 03:06:58;;;;;;;19.23;2.00;;;6.90;99.90;;;;;;5115969;28;20042;-70
2021/12/20 03:09:29;;;;;;;16.15;2.63;;;;;;;;;;5098049;28;20048;-70
2021/12/20 03:11:58;;;;;;;18.00;2.40;;;6.70;99.90;;;;;;5114132;28;20499;-70
2021/12/20 03:14:31;;;;;;;17.90;2.40;;;;;;;;;;5110684;28;20047;-71
2021/12/20 03:16:58;;;;;;;16.40;2.05;;;6.80;99.90;;;;;;5097837;28;20133;-70
2021/12/20 03:19:25;;;;;;;22.05;2.45;;;;;;;;;;5105497;28;20031;-71
2021/12/20 03:21:51;;;;;;;12.88;2.28;;;;;;;;;;5115059;28;20116;-71
2021/12/20 03:24:17;;;;;;;16.85;2.35;;;7.30;99.90;;;;;;5112637;28;20044;-71
2021/12/20 03:26:43;;;;;;;15.23;2.50;;;;;;;;;;5095141;28;20040;-71
2021/12/20 03:29:09;;;;;;;14.90;1.80;;;;;;;;;;5113382;28;20039;-71
2021/12/20 03:31:36;;;;;;;19.83;2.42;;;;;;;;;;5094927;28;20101;-71
2021/12/20 03:34:03;;;;;;;15.85;2.22;;;6.60;99.90;;;;;;5093526;28;20052;-71
2021/12/20 03:36:29;;;;;;;8.50;1.98;;;;;;;;;;5097368;28;20031;-71
2021/12/20 03:38:55;;;;;;;12.75;1.95;;;;;;;;;;5096844;28;20391;-71
2021/12/20 03:41:22;;;;;;;11.30;1.83;;;6.70;99.90;;;;;;5095618;28;20035;-71
2021/12/20 03:43:48;;;;;;;10.45;1.70;;;;;;;;;;5115342;28;20058;-71
2021/12/20 03:46:14;;;;;;;10.43;2.17;;;;;;;;;;5097723;28;20115;-71
2021/12/20 03:48:40;;;;;;;15.23;1.98;;;;;;;;;;5109452;28;20036;-71
2021/12/20 03:51:06;;;;;;;11.50;1.80;;;;;;;;;;5099546;28;20047;-71
2021/12/20 03:53:33;;;;;;;14.27;1.80;;;7.10;99.90;;;;;;5077659;28;20043;-71
2021/12/20 03:56:01;;;;;;;12.93;1.90;;;6.30;99.90;;;;;;5091095;28;20188;-71
2021/12/20 03:58:27;;;;;;;12.07;1.73;;;;;;;;;;5096297;28;20036;-71
2021/12/20 04:00:58;;;;;;;16.40;1.65;;;6.20;99.90;;;;;;5102368;28;20048;-71
2021/12/20 04:03:25;;;;;;;8.27;1.50;;;6.30;99.90;;;;;;5094302;28;20033;-71
2021/12/20 04:05:51;;;;;;;7.72;1.30;;;;;;;;;;5104976;28;20129;-71
2021/12/20 04:08:17;;;;;;;12.25;2.00;;;;;;;;;;5105053;28;20032;-71
2021/12/20 04:10:43;;;;;;;10.57;2.08;;;;;;;;;;5103417;28;20048;-71
2021/12/20 04:13:10;;;;;;;6.68;1.30;;;;;;;;;;5114718;28;20065;-71
2021/12/20 04:15:36;;;;;;;7.95;1.45;;;5.80;99.90;;;;;;5106843;28;20035;-71
2021/12/20 04:18:03;;;;;;;7.97;1.40;;;5.90;99.90;;;;;;5100828;28;20091;-71
2021/12/20 04:20:29;;;;;;;8.35;1.30;;;;;;;;;;5107695;28;20040;-71
2021/12/20 04:22:55;;;;;;;11.80;1.88;;;6.50;99.90;;;;;;5076719;28;20380;-72
2021/12/20 04:25:21;;;;;;;8.98;1.92;;;;;;;;;;5098228;28;20051;-73
2021/12/20 04:27:47;;;;;;;14.02;1.65;;;;;;;;;;5109180;28;20044;-71
2021/12/20 04:30:13;;;;;;;11.88;1.92;;;6.60;99.90;;;;;;5096213;28;20032;-71
2021/12/20 04:32:42;;;;;;;11.25;1.88;;;5.80;99.90;;;;;;5114120;28;20032;-71
2021/12/20 04:35:09;;;;;;;12.13;2.95;;;6.00;99.90;;;;;;5112339;28;20476;-72
2021/12/20 04:37:35;;;;;;;9.32;1.83;;;;;;;;;;5095814;28;20043;-71
2021/12/20 04:40:06;;;;;;;8.00;2.15;;;;;;;;;;5113638;28;20039;-71
2021/12/20 04:42:32;;;;;;;10.10;1.85;;;;;;;;;;5093340;28;20079;-71
2021/12/20 04:44:58;;;;;;;7.22;1.65;;;;;;;;;;5093118;28;20036;-71
2021/12/20 04:47:24;;;;;;;10.98;1.85;;;;;;;;;;5110946;28;20042;-71
2021/12/20 04:49:50;;;;;;;11.85;1.83;;;;;;;;;;5093034;28;20480;-78
2021/12/20 04:52:16;;;;;;;10.65;1.83;;;;;;;;;;5076568;28;20040;-70
2021/12/20 04:54:42;;;;;;;10.07;1.73;;;;;;;;;;5094313;28;20109;-70
2021/12/20 04:57:09;;;;;;;8.23;1.42;;;6.30;99.90;;;;;;5097081;28;20122;-70
2021/12/20 04:59:35;;;;;;;17.65;2.92;;;;;;;;;;5111582;28;20051;-71
2021/12/20 05:02:01;;;;;;;10.25;1.88;;;;;;;;;;5098945;28;20588;-70
2021/12/20 05:04:27;;;;;;;15.20;1.95;;;;;;;;;;5076082;28;20039;-70
2021/12/20 05:06:53;;;;;;;9.93;2.08;;;;;;;;;;5105066;28;20039;-70
2021/12/20 05:09:20;;;;;;;14.48;3.97;;;;;;;;;;5096669;28;20487;-70
2021/12/20 05:11:50;;;;;;;11.80;1.70;;;;;;;;;;5086204;28;20036;-70
2021/12/20 05:14:17;;;;;;;9.23;1.63;;;5.50;99.90;;;;;;5110312;28;20486;-71
2021/12/20 05:16:43;;;;;;;12.40;1.80;;;;;;;;;;5103351;28;20035;-70
2021/12/20 05:19:10;;;;;;;10.05;1.80;;;;;;;;;;5107577;28;20040;-70
2021/12/20 05:21:35;;;;;;;11.70;1.60;;;5.70;99.90;;;;;;5105166;28;20492;-70
2021/12/20 05:24:01;;;;;;;13.02;1.95;;;;;;;;;;5092597;28;20046;-70
2021/12/20 05:26:29;;;;;;;14.18;1.98;;;;;;;;;;5081532;28;20036;-70
2021/12/20 05:28:55;;;;;;;8.55;1.38;;;;;;;;;;5083890;28;20441;-70
2021/12/20 05:31:21;;;;;;;9.00;1.80;;;;;;;;;;5092477;28;20546;-71
2021/12/20 05:33:47;;;;;;;14.88;1.80;;;;;;;;;;5092342;28;20487;-70
2021/12/20 05:36:14;;;;;;;12.10;1.50;;;;;;;;;;5094609;28;20040;-70
2021/12/20 05:38:40;;;;;;;7.88;1.90;;;;;;;;;;5102612;28;20479;-70
2021/12/20 05:41:06;;;;;;;5.97;1.50;;;;;;;;;;5076087;28;20480;-70
2021/12/20 05:43:32;;;;;;;5.85;1.50;;;;;;;;;;5095774;28;20041;-70
2021/12/20 05:45:58;;;;;;;7.72;1.60;;;;;;;;;;5095670;28;20123;-70
2021/12/20 05:48:25;;;;;;;13.10;3.03;;;;;;;;;;5100310;28;20399;-70
2021/12/20 05:50:51;;;;;;;6.32;1.58;;;;;;;;;;5112869;28;20055;-70
2021/12/20 05:53:17;;;;;;;9.32;1.70;;;;;;;;;;5077860;28;20036;-70
2021/12/20 05:55:44;;;;;;;10.95;1.50;;;;;;;;;;5091581;28;20044;-71
2021/12/20 05:58:10;;;;;;;16.63;2.30;;;;;;;;;;5103886;28;20047;-71
2021/12/20 06:00:36;;;;;;;14.32;2.20;;;;;;;;;;5075443;28;20079;-71
2021/12/20 06:03:02;;;;;;;8.82;2.20;;;6.00;99.90;;;;;;5089594;28;20104;-71
2021/12/20 06:05:28;;;;;;;5.40;1.73;;;;;;;;;;5095345;28;20035;-70
2021/12/20 06:07:54;;;;;;;11.88;1.88;;;;;;;;;;5101081;28;20036;-71
2021/12/20 06:10:20;;;;;;;9.00;1.63;;;;;;;;;;5112403;28;20047;-70
2021/12/20 06:12:46;;;;;;;5.35;1.60;;;;;;;;;;5084511;28;20032;-70
2021/12/20 06:15:12;;;;;;;12.43;2.13;;;;;;;;;;5092068;28;20052;-70
2021/12/20 06:17:39;;;;;;;8.30;1.80;;;5.80;99.90;;;;;;5100865;28;20118;-70
2021/12/20 06:20:10;;;;;;;10.93;2.00;;;5.70;99.90;;;;;;5112275;28;20091;-70
2021/12/20 06:22:37;;;;;;;11.25;1.90;;;;;;;;;;5086182;28;20059;-72
2021/12/20 06:25:03;;;;;;;9.75;1.60;;;;;;;;;;5074784;28;20506;-70
2021/12/20 06:27:29;;;;;;;12.88;2.10;;;5.90;99.90;;;;;;5091136;28;20047;-71
2021/12/20 06:29:55;;;;;;;9.32;2.00;;;;;;;;;;5091652;28;20040;-71
2021/12/20 06:32:21;;;;;;;13.45;2.10;;;;;;;;;;5064930;28;20487;-72
2021/12/20 06:34:47;;;;;;;13.45;1.95;;;;;;;;;;5075021;28;20572;-71
2021/12/20 06:37:13;;;;;;;9.45;1.85;;;;;;;;;;5094418;28;20492;-72
2021/12/20 06:39:39;;;;;;;9.65;2.10;;;;;;;;;;5095375;28;20051;-71
2021/12/20 06:42:06;;;;;;;10.13;2.20;;;;;;;;;;5110289;28;20040;-72
2021/12/20 06:44:32;;;;;;;11.20;2.15;;;;;;;;;;5092054;28;20101;-71
2021/12/20 06:46:58;;;;;;;12.38;1.60;;;;;;;;;;5106550;28;20097;-70
2021/12/20 06:49:25;;;;;;;8.40;1.88;;;;;;;;;;5091923;28;20377;-72
2021/12/20 06:51:53;;;;;;;9.55;2.08;;;;;;;;;;5091912;28;20048;-70
2021/12/20 06:54:19;;;;;;;9.20;1.90;;;;;;;;;;5110373;28;20498;-70
2021/12/20 06:56:45;;;;;;;12.32;2.38;;;;;;;;;;5103400;28;20492;-70
2021/12/20 06:59:12;;;;;;;10.70;1.90;;;5.90;99.90;;;;;;5100039;28;20115;-70
2021/12/20 07:01:38;;;;;;;8.07;2.40;;;;;;;;;;5102026;28;20525;-70
2021/12/20 07:04:04;;;;;;;8.63;2.00;;;;;;;;;;5092746;28;20110;-70
2021/12/20 07:06:30;;;;;;;12.00;2.70;;;;;;;;;;5080399;28;20043;-70
2021/12/20 07:08:56;;;;;;;4.90;1.63;;;;;;;;;;5109053;28;20031;-71
2021/12/20 07:11:23;;;;;;;9.73;1.92;;;;;;;;;;5115101;28;20035;-71
2021/12/20 07:13:50;;;;;;;9.65;1.92;;;;;;;;;;5096227;28;20472;-70
2021/12/20 07:16:16;;;;;;;13.75;2.22;;;;;;;;;;5107559;28;20090;-71
2021/12/20 07:18:43;;;;;;;13.18;2.45;;;;;;;;;;5104201;28;20051;-70
2021/12/20 07:21:09;;;;;;;9.63;1.90;;;;;;;;;;5095107;28;20040;-71
2021/12/20 07:23:35;;;;;;;11.30;2.20;;;;;;;;;;5103604;28;20146;-70
2021/12/20 07:26:06;;;;;;;12.48;2.80;;;5.70;99.90;;;;;;5104800;28;20518;-70
2021/12/20 07:28:33;;;;;;;12.10;2.22;;;5.70;99.90;;;;;;5102682;28;20028;-70
2021/12/20 07:30:59;;;;;;;10.55;2.65;;;;;;;;;;5098204;28;20373;-70
2021/12/20 07:33:25;;;;;;;16.23;3.50;;;;;;;;;;5104298;28;20066;-70
2021/12/20 07:35:52;;;;;;;13.75;3.38;;;;;;;;;;5106051;28;20132;-70
2021/12/20 07:38:18;;;;;;;12.50;3.00;;;;;;;;;;5099153;28;20039;-69
2021/12/20 07:40:45;;;;;;;7.32;2.25;;;;;;;;;;5115248;28;20129;-72
2021/12/20 07:43:14;;;;;;;12.10;2.90;;;5.80;99.90;;;;;;5094373;28;20444;-72
2021/12/20 07:45:41;;;;;;;10.88;2.50;;;6.10;99.90;;;;;;5100673;28;20085;-72
2021/12/20 07:48:10;;;;;;;7.63;2.83;;;5.70;99.90;;;;;;5112827;28;20040;-72
2021/12/20 07:50:36;;;;;;;12.52;2.78;;;;;;;;;;5094868;28;20043;-70
2021/12/20 07:53:02;;;;;;;9.38;2.40;;;;;;;;;;5094835;28;20247;-70
2021/12/20 07:55:28;;;;;;;12.85;2.63;;;;;;;;;;5109529;28;20128;-70
2021/12/20 07:57:54;;;;;;;10.13;3.28;;;;;;;;;;5077609;28;20040;-71
2021/12/20 08:00:20;;;;;;;15.93;2.22;;;;;;;;;;5095916;28;20059;-72
2021/12/20 08:02:47;;;;;;;12.65;3.25;;;;;;;;;;5114687;28;20043;-72
2021/12/20 08:05:14;;;;;;;18.27;2.50;;;;;;;;;;5109776;28;20506;-71
2021/12/20 08:07:41;;;;;;;12.85;2.33;;;;;;;;;;5114387;28;20047;-72
2021/12/20 08:10:08;;;;;;;6.40;2.50;;;5.60;99.90;;;;;;5098782;28;20085;-72
2021/12/20 08:12:35;;;;;;;9.30;3.00;;;;;;;;;;5093872;28;20145;-72
2021/12/20 08:15:01;;;;;;;14.27;2.60;;;;;;;;;;5089632;28;20067;-69
2021/12/20 08:17:28;;;;;;;7.70;2.70;;;;;;;;;;5114527;28;20122;-72
2021/12/20 08:19:55;;;;;;;9.02;2.60;;;;;;;;;;5101275;28;20545;-72
2021/12/20 08:22:24;;;;;;;11.70;2.50;;;;;;;;;;5099946;28;20052;-74
2021/12/20 08:24:51;;;;;;;11.73;2.40;;;;;;;;;;5094955;28;20464;-74
2021/12/20 08:27:17;;;;;;;11.32;2.70;;;;;;;;;;5093613;28;20040;-74
2021/12/20 08:29:43;;;;;;;10.77;2.60;;;;;;;;;;5100916;28;20114;-74
2021/12/20 08:32:09;;;;;;;14.05;2.85;;;;;;;;;;5096763;28;20047;-73
2021/12/20 08:34:35;;;;;;;11.95;2.50;;;;;;;;;;5105430;28;20040;-74
2021/12/20 08:37:01;;;;;;;8.43;2.67;;;;;;;;;;5113702;28;20043;-74
2021/12/20 08:39:30;;;;;;;11.15;2.90;;;5.10;99.90;;;;;;5106314;28;20126;-73
2021/12/20 08:41:56;;;;;;;11.07;2.72;;;;;;;;;;5113672;28;20491;-73
2021/12/20 08:44:23;;;;;;;17.45;2.85;;;5.00;99.90;;;;;;5090729;28;20076;-73
2021/12/20 08:46:50;;;;;;;9.95;2.80;;;;;;;;;;5093377;28;20036;-72
2021/12/20 08:49:16;;;;;;;10.60;2.67;;;;;;;;;;5093920;28;20127;-73
2021/12/20 08:51:42;;;;;;;9.48;2.72;;;;;;;;;;5113714;28;20047;-73
2021/12/20 08:54:08;;;;;;;12.05;3.88;;;;;;;;;;5104933;28;20036;-72
2021/12/20 08:56:34;;;;;;;12.90;3.08;;;;;;;;;;5095395;28;20093;-74
2021/12/20 08:59:00;;;;;;;17.80;2.88;;;;;;;;;;5108471;28;20047;-76
2021/12/20 09:01:26;;;;;;;14.55;4.05;;;;;;;;;;5110380;28;20044;-74
2021/12/20 09:03:52;;;;;;;13.68;3.33;;;;;;;;;;5106126;28;20037;-74
2021/12/20 09:06:22;;;;;;;13.95;3.40;;;;;;;;;;5108935;28;20042;-73
2021/12/20 09:08:49;;;;;;;16.27;3.20;;;;;;;;;;5095425;28;20039;-71
2021/12/20 09:11:15;;;;;;;10.52;3.58;;;;;;;;;;5074477;28;20046;-72
2021/12/20 09:13:41;;;;;;;14.93;4.28;;;;;;;;;;5112418;28;20410;-71
2021/12/20 09:16:08;;;;;;;18.83;4.03;;;;;;;;;;5100302;28;20464;-71
2021/12/20 09:18:34;;;;;;;10.18;3.90;;;;;;;;;;5093042;28;20032;-71
2021/12/20 09:21:00;;;;;;;14.70;3.70;;;;;;;;;;5084262;28;20036;-71
2021/12/20 09:23:29;;;;;;;10.55;3.58;;;5.10;99.90;;;;;;5092325;28;20051;-71
2021/12/20 09:25:55;;;;;;;10.65;3.47;;;;;;;;;;5102416;28;20036;-71
2021/12/20 09:28:21;;;;;;;12.15;3.38;;;;;;;;;;5113025;28;20047;-71
2021/12/20 09:30:47;;;;;;;12.57;4.00;;;;;;;;;;5103799;28;20039;-71
2021/12/20 09:33:14;;;;;;;14.48;4.15;;;5.40;99.90;;;;;;5112485;28;20047;-74
2021/12/20 09:35:40;;;;;;;14.93;3.80;;;;;;;;;;5105752;28;20032;-73
2021/12/20 09:38:09;;;;;;;11.38;4.45;;;4.80;99.90;;;;;;5075670;28;20040;-73
2021/12/20 09:40:39;;;;;;;8.95;4.38;;;5.90;99.90;;;;;;5084369;28;20091;-75
2021/12/20 09:43:08;;;;;;;15.73;4.88;;;5.70;99.90;;;;;;5085886;28;20035;-76
2021/12/20 09:45:34;;;;;;;15.40;4.43;;;5.80;99.90;;;;;;5110918;28;20048;-72
2021/12/20 09:48:01;;;;;;;15.15;4.88;;;;;;;;;;5112576;28;20038;-73
2021/12/20 09:50:27;;;;;;;12.88;4.70;;;;;;;;;;5082732;28;20480;-71
2021/12/20 09:52:53;;;;;;;17.42;4.68;;;;;;;;;;5111221;28;20032;-73
2021/12/20 09:55:19;;;;;;;13.45;4.50;;;;;;;;;;5112885;28;20498;-73
2021/12/20 09:57:48;;;;;;;12.18;4.25;;;6.10;99.90;;;;;;5095282;28;20039;-76
2021/12/20 10:00:18;;;;;;;19.15;4.25;;;5.60;99.90;;;;;;5102953;28;20110;-72
2021/12/20 10:02:45;;;;;;;19.98;3.33;;;;;;;;;;5110112;28;20039;-73
2021/12/20 10:05:12;;;;;;;17.95;3.53;;;6.30;99.90;;;;;;5095638;28;20047;-72
2021/12/20 10:07:39;;;;;;;19.20;3.80;;;;;;;;;;5105799;28;20031;-81
2021/12/20 10:10:07;;;;;;;12.95;3.30;;;5.70;99.90;;;;;;5105439;28;20118;-80
2021/12/20 10:12:33;;;;;;;21.77;4.10;;;;;;;;;;5110680;28;20103;-72
2021/12/20 10:14:59;;;;;;;12.32;3.35;;;;;;;;;;5112074;28;20495;-72
2021/12/20 10:17:31;;;;;;;12.60;2.60;;;6.60;99.90;;;;;;5102601;28;20044;-72
2021/12/20 10:20:16;;;;;;;16.55;3.33;;;6.40;99.90;;;;;;5090863;28;20048;-72
2021/12/20 10:22:42;;;;;;;15.25;2.60;;;;;;;;;;5094395;28;20048;-72
2021/12/20 10:25:26;;;;;;;19.27;3.80;;;;;;;;;;5112173;28;20396;-72
2021/12/20 10:27:53;;;;;;;21.33;2.92;;;;;;;;;;5108938;28;20067;-72
2021/12/20 10:30:24;;;;;;;12.20;2.60;;;6.60;99.90;;;;;;5111558;28;20031;-72
2021/12/20 10:32:50;;;;;;;15.38;2.85;;;;;;;;;;5100689;28;20051;-74
2021/12/20 10:35:25;;;;;;;20.50;2.92;;;6.80;99.90;;;;;;5090391;28;20506;-72
2021/12/20 10:37:53;;;;;;;20.23;2.92;;;;;;;;;;5092150;28;20127;-72
2021/12/20 10:40:19;;;;;;;20.15;3.63;;;7.40;99.90;;;;;;5091151;28;20028;-72
2021/12/20 10:42:45;;;;;;;21.33;3.22;;;;;;;;;;5101935;28;20556;-72
2021/12/20 10:45:13;;;;;;;14.75;3.10;;;6.80;99.90;;;;;;5113169;28;20122;-74
2021/12/20 10:47:43;;;;;;;17.33;3.30;;;6.70;99.90;;;;;;5104548;28;20035;-72
2021/12/20 10:50:27;;;;;;;20.80;3.92;;;;;;;;;;5116132;28;20078;-72
2021/12/20 10:53:10;;;;;;;14.45;2.70;;;6.90;99.90;;;;;;5089387;28;20185;-72
2021/12/20 10:55:42;;;;;;;17.48;2.60;;;6.90;99.90;;;;;;5095411;28;20039;-72
2021/12/20 10:58:38;;;;;;;21.58;2.85;;;7.10;99.90;;;;;;5100650;28;20040;-72
2021/12/20 11:01:21;;;;;;;19.38;2.92;;;7.30;99.90;;;;;;5103253;28;20051;-72
2021/12/20 11:04:12;;;;;;;14.45;2.88;;;7.20;99.90;;;;;;5108009;28;20040;-72
2021/12/20 11:09:25;;;;;;;29.25;3.80;;;7.30;99.90;;;;;;5115012;28;20487;-72
2021/12/20 11:12:00;;;;;;;25.00;3.60;;;7.30;99.90;;;;;;5113745;28;20036;-72
2021/12/20 11:14:29;;;;;;;28.55;3.95;;;7.20;99.90;;;;;;5102984;28;20136;-72
2021/12/20 11:16:57;;;;;;;24.38;4.10;;;;;;;;;;5115123;28;20081;-72
2021/12/20 11:19:32;;;;;;;20.55;3.70;;;7.40;99.90;;;;;;5078900;28;20039;-72
2021/12/20 11:22:14;;;;;;;23.02;4.15;;;7.60;99.90;;;;;;5095009;28;20051;-72
2021/12/20 11:24:52;;;;;;;22.65;3.60;;;8.20;99.90;;;;;;5098420;28;20078;-72
2021/12/20 11:27:20;;;;;;;20.50;3.45;;;;;;;;;;5116154;28;20054;-72
2021/12/20 11:29:48;;;;;;;22.98;3.70;;;7.80;99.90;;;;;;5103415;28;20064;-72
2021/12/20 11:32:15;;;;;;;24.90;4.88;;;7.90;99.90;;;;;;5094918;28;20036;-72
2021/12/20 11:34:42;;;;;;;24.48;4.22;;;;;;;;;;5113747;28;20048;-72
2021/12/20 11:37:13;;;;;;;30.95;4.47;;;7.70;99.90;;;;;;5115667;28;20043;-72
2021/12/20 11:39:39;;;;;;;29.80;2.92;;;8.20;99.90;;;;;;5107033;28;20036;-72
2021/12/20 11:42:07;;;;;;;16.58;3.35;;;8.40;99.90;;;;;;5114977;28;20047;-72
2021/12/20 11:44:35;;;;;;;31.45;3.42;;;8.40;99.90;;;;;;5098559;28;20480;-72
2021/12/20 11:47:23;;;;;;;26.02;3.83;;;7.60;99.90;;;;;;5078483;28;20064;-72
2021/12/20 11:50:30;;;;;;;23.67;3.78;;;8.30;99.90;;;;;;5079907;28;20039;-71
2021/12/20 11:53:08;;;;;;;21.65;3.65;;;8.50;99.90;;;;;;5015852;28;20052;-71
2021/12/20 11:55:34;;;;;;;26.65;3.83;;;8.40;99.90;;;;;;5070901;28;20432;-72
2021/12/20 11:58:14;;;;;;;27.55;4.00;;;8.60;99.90;;;;;;5096023;28;20040;-72
2021/12/20 12:00:47;;;;;;;28.08;3.83;;;8.50;99.90;;;;;;5114339;28;20042;-72
2021/12/20 12:03:15;;;;;;;21.63;5.60;;;8.30;99.90;;;;;;5111225;28;20174;-72
2021/12/20 12:05:48;;;;;;;18.25;3.03;;;;;;;;;;5094060;28;20036;-72
2021/12/20 12:08:20;;;;;;;;;;;8.40;99.90;;;;;;5097923;28;20427;-72
2021/12/20 12:10:47;;;;;;;24.08;4.00;;;;;;;;;;5076930;28;19915;-71
2021/12/20 12:13:17;;;;;;;30.75;4.32;;;;;;;;;;5094176;28;20073;-72
2021/12/20 12:16:05;;;;;;;17.55;3.15;;;8.40;99.90;;;;;;5093863;28;20393;-71
2021/12/20 12:18:51;;;;;;;27.35;3.53;;;8.50;99.90;;;;;;5100543;28;20054;-72
2021/12/20 12:21:41;;;;;;;27.25;4.40;;;8.40;99.90;;;;;;5114277;28;20047;-72
2021/12/20 12:24:08;;;;;;;27.35;2.78;;;8.50;99.90;;;;;;5092721;28;20044;-72
2021/12/20 12:26:37;;;;;;;23.60;4.13;;;8.50;99.90;;;;;;5093708;28;20052;-72
2021/12/20 12:29:04;;;;;;;19.35;2.70;;;8.30;99.90;;;;;;5094152;28;20043;-72
2021/12/20 12:31:48;;;;;;;28.48;4.35;;;8.40;99.90;;;;;;5093564;28;20427;-71
2021/12/20 12:34:15;;;;;;;18.75;2.88;;;;;;;;;;5104090;28;20035;-72
2021/12/20 12:36:42;;;;;;;24.30;2.78;;;;;;;;;;5097062;28;20047;-71
2021/12/20 12:39:25;;;;;;;24.05;3.20;;;8.20;99.90;;;;;;5104055;28;20048;-71
2021/12/20 12:42:01;;;;;;;16.83;3.58;;;;;;;;;;5112102;28;20510;-72
2021/12/20 12:44:32;;;;;;;21.85;3.75;;;8.20;99.90;;;;;;5102227;28;20396;-72
2021/12/20 12:47:00;;;;;;;19.73;2.97;;;;;;;;;;5093635;28;20040;-71
2021/12/20 12:49:27;;;;;;;21.67;3.28;;;;;;;;;;5097616;28;20058;-72
2021/12/20 12:52:16;;;;;;;23.40;3.47;;;8.40;99.90;;;;;;5076263;28;20046;-72
2021/12/20 12:54:46;;;;;;;23.35;4.53;;;8.30;99.90;;;;;;5083770;28;20053;-72
2021/12/20 12:57:12;;;;;;;22.70;3.42;;;;;;;;;;5093415;28;20039;-72
2021/12/20 12:59:50;;;;;;;24.45;3.65;;;9.10;99.90;;;;;;5097647;28;20436;-72
2021/12/20 13:02:24;;;;;;;14.82;3.35;;;8.60;99.90;;;;;;5093086;28;20121;-72
2021/12/20 13:04:57;;;;;;;13.07;2.90;;;8.60;99.90;;;;;;5089709;28;20479;-71
2021/12/20 13:07:24;;;;;;;20.95;3.63;;;;;;;;;;5113620;28;20054;-71
2021/12/20 13:09:52;;;;;;;22.85;2.85;;;9.00;99.90;;;;;;5090533;28;20530;-71
2021/12/20 13:12:29;;;;;;;21.63;3.50;;;9.00;99.90;;;;;;5113248;28;20076;-71
2021/12/20 13:15:12;;;;;;;17.90;3.15;;;9.70;99.90;;;;;;5106473;28;20487;-71
2021/12/20 13:17:40;;;;;;;23.75;3.17;;;8.70;99.90;;;;;;5113191;28;20044;-71
2021/12/20 13:20:23;;;;;;;30.40;3.45;;;9.50;99.90;;;;;;5106276;28;20043;-71
2021/12/20 13:22:53;;;;;;;21.40;3.60;;;;;;;;;;5113109;28;20075;-71
2021/12/20 13:25:53;;;;;;;16.75;3.08;;;9.10;99.90;;;;;;5111380;28;20076;-71
2021/12/20 13:28:31;;;;;;;17.67;3.53;;;9.80;99.90;;;;;;5062522;28;20383;-71
2021/12/20 13:30:57;;;;;;;19.08;3.67;;;;;;;;;;5111172;28;20047;-70
2021/12/20 13:33:26;;;;;;;19.17;3.78;;;9.00;99.90;;;;;;5107670;28;20040;-70
2021/12/20 13:35:54;;;;;;;21.75;2.95;;;9.20;99.90;;;;;;5109622;28;20047;-70
2021/12/20 13:38:24;;;;;;;19.70;3.22;;;;;;;;;;5108124;28;20082;-70
2021/12/20 13:40:55;;;;;;;18.45;3.10;;;9.30;99.90;;;;;;5110431;28;20039;-70
2021/12/20 13:43:30;;;;;;;15.85;2.75;;;9.00;99.90;;;;;;5098237;28;20516;-70
2021/12/20 13:46:40;;;;;;;24.77;3.38;;;8.90;99.90;;;;;;5106717;28;20032;-70
2021/12/20 13:49:06;;;;;;;18.73;3.17;;;8.20;99.90;;;;;;5092389;28;20384;-70
2021/12/20 13:51:51;;;;;;;23.60;3.50;;;9.10;99.90;;;;;;5109463;28;20107;-70
2021/12/20 13:54:17;;;;;;;18.10;2.97;;;;;;;;;;5101827;28;20097;-70
2021/12/20 13:56:49;;;;;;;15.00;2.85;;;9.20;99.90;;;;;;5110639;28;20043;-70
2021/12/20 13:59:20;;;;;;;16.15;2.92;;;9.20;99.90;;;;;;5108367;28;20053;-70
2021/12/20 14:01:46;;;;;;;25.65;4.00;;;;;;;;;;5094164;28;20051;-70
2021/12/20 14:04:44;;;;;;;28.02;3.05;;;9.00;99.90;;;;;;5088180;28;20079;-70
2021/12/20 14:07:43;;;;;;;19.00;3.28;;;8.60;99.90;;;;;;5092095;28;20089;-69